Terminal Aerodrome Forecast
Issued by NWS

Home | Current Version | Previous Version | Text Only | Print | Product List | Glossary On
Versions: 1 2 3 4 5 6 7 8 9 10 11 12 13 14 15
000
FTUS43 KGRB 092333
TAFRHI
TAF
KRHI 092333Z 1000/1024 29005KT P6SM -SHSN BKN035
     FM100200 28006KT P6SM -SHSN BKN025
     FM101100 28005KT P6SM SCT025
     FM101900 28006KT P6SM BKN020
     FM102100 27004KT P6SM BKN120=

USA.gov is the U.S. government's official web portal to all federal, state and local government web resources and services.